Robinson, IL

3:17 AM CDT on May 21, 2018 (GMT -0500)
Robinson Municipal

Weather History for KRSV - October, 2012

Change the Weather History Date:

Saturday, October 6, 2012

  Actual Average (KLWV) Record (KLWV)
Temperature  
Mean Temperature 46 °F -  
Max Temperature 55 °F 70 °F 93 °F (2007)
Min Temperature 36 °F 46 °F 33 °F (2004)
Degree Days  
Heating Degree Days 20    
Moisture  
Dew Point 37 °F    
Average Humidity 75    
Maximum Humidity 100    
Minimum Humidity 46    
Precipitation  
Precipitation 0.01 in - - ()
Sea Level Pressure  
Sea Level Pressure 30.20 in    
Wind  
Wind Speed 6 mph (WNW)    
Max Wind Speed 12 mph    
Max Gust Speed 16 mph    
Visibility 10 miles    
Events      
Averages and records for this station are not official NWS values.
T = Trace of Precipitation, MM = Missing Value Source: NWS Daily Summary

Daily Weather History Graph

Daily Weather History Graph

Search for Another Location

Airport or City:

Astronomy

Oct. 06, 2012 Rise Set
Actual Time 6:51 AM CDT 6:24 PM CDT
Civil Twilight 6:25 AM CDT 6:51 PM CDT
Nautical Twilight 5:54 AM CDT 7:22 PM CDT
Astronomical Twilight 5:23 AM CDT 7:53 PM CDT
Moon 10:42 PM CDT (10/6) 12:43 PM CDT (10/6)
Length of Visible Light 12h 26m
Length of Day
11h 32m
Waning Gibbous, 65% of the Moon is Illuminated
Oct 6
Waning Gibbous
Oct 8
Last Quarter
Oct 15
New
Oct 21
First Quarter
Oct 29
Full

Hourly Weather History & Observations

Time (CDT) Temp. Windchill Dew Point Humidity Pressure Visibility Wind Dir Wind Speed Gust Speed Precip Events Conditions
12:15 AM 42.4 °F 38.8 °F 42.4 °F 100% 30.17 in 10.0 mi West 5.8 mph - N/A   Clear
12:35 AM 42.3 °F 37.9 °F 42.3 °F 100% 30.17 in 10.0 mi West 6.9 mph - 0.01 in   Clear
12:55 AM 41.9 °F 38.2 °F 41.9 °F 100% 30.18 in 10.0 mi West 5.8 mph - 0.01 in   Clear
1:15 AM 41.2 °F 38.2 °F 41.2 °F 100% 30.18 in 10.0 mi West 4.6 mph - N/A   Clear
1:35 AM 40.5 °F 36.5 °F 40.5 °F 100% 30.17 in 10.0 mi West 5.8 mph - N/A   Clear
1:55 AM 40.1 °F 36.9 °F 40.1 °F 100% 30.17 in 10.0 mi West 4.6 mph - N/A   Clear
2:15 AM 39.6 °F 36.3 °F 39.6 °F 100% 30.17 in 10.0 mi West 4.6 mph - N/A   Clear
2:35 AM 39.2 °F 35.9 °F 39.2 °F 100% 30.17 in 10.0 mi West 4.6 mph - N/A   Clear
2:55 AM 39.2 °F 35.9 °F 39.2 °F 100% 30.16 in 10.0 mi West 4.6 mph - N/A   Clear
3:15 AM 38.7 °F 34.3 °F 38.7 °F 100% 30.16 in 10.0 mi West 5.8 mph - N/A   Clear
3:35 AM 38.7 °F 33.6 °F 38.7 °F 100% 30.17 in 10.0 mi West 6.9 mph - N/A   Clear
3:55 AM 38.3 °F 33.9 °F 38.3 °F 100% 30.17 in 10.0 mi West 5.8 mph - N/A   Clear
4:35 AM 38.3 °F 33.2 °F 38.3 °F 100% 30.17 in 10.0 mi West 6.9 mph - N/A   Clear
4:55 AM 37.4 °F 33.8 °F 37.4 °F 100% 30.18 in 10.0 mi West 4.6 mph - N/A   Clear
5:15 AM 37.4 °F 32.1 °F 37.4 °F 100% 30.18 in 10.0 mi West 6.9 mph - N/A   Clear
5:35 AM 36.9 °F 32.2 °F 36.9 °F 100% 30.19 in 10.0 mi West 5.8 mph - N/A   Clear
5:55 AM 36.9 °F 32.2 °F 36.9 °F 100% 30.19 in 10.0 mi West 5.8 mph - N/A   Clear
6:15 AM 36.7 °F 32.0 °F 36.7 °F 100% 30.21 in 10.0 mi West 5.8 mph - N/A   Clear
6:35 AM 36.7 °F 32.0 °F 36.7 °F 100% 30.21 in 10.0 mi West 5.8 mph - N/A   Clear
6:55 AM 36.7 °F 31.2 °F 36.7 °F 100% 30.22 in 10.0 mi West 6.9 mph - N/A   Clear
7:15 AM 37.4 °F 32.8 °F 37.4 °F 100% 30.22 in 10.0 mi West 5.8 mph - N/A   Clear
7:35 AM 39.0 °F 35.7 °F 39.0 °F 100% 30.22 in 10.0 mi West 4.6 mph - N/A   Clear
7:55 AM 39.2 °F - 38.7 °F 98% 30.22 in 10.0 mi Calm Calm - N/A   Clear
8:15 AM 40.5 °F 37.3 °F 38.8 °F 94% 30.23 in 10.0 mi West 4.6 mph - N/A   Clear
8:35 AM 41.4 °F 39.4 °F 39.4 °F 93% 30.23 in 10.0 mi WNW 3.5 mph - N/A   Clear
8:55 AM 42.8 °F 41.1 °F 39.0 °F 86% 30.22 in 10.0 mi NW 3.5 mph - N/A   Clear
9:15 AM 44.6 °F - 36.9 °F 74% 30.22 in 10.0 mi Calm Calm - N/A   Clear
9:35 AM 45.5 °F 40.3 °F 36.3 °F 70% 30.23 in 10.0 mi NW 10.4 mph - N/A   Clear
9:55 AM 46.8 °F - 36.9 °F 68% 30.22 in 10.0 mi NW 9.2 mph - N/A   Clear
10:15 AM 45.7 °F 42.0 °F 36.0 °F 69% 30.22 in 10.0 mi WNW 6.9 mph - N/A   Clear
10:35 AM 46.8 °F - 36.5 °F 67% 30.22 in 10.0 mi NNW 4.6 mph - N/A   Clear
10:55 AM 47.8 °F - 36.3 °F 64% 30.22 in 10.0 mi West 9.2 mph - N/A   Clear
11:15 AM 48.9 °F - 35.2 °F 59% 30.21 in 10.0 mi WNW 5.8 mph - N/A   Clear
11:35 AM 48.6 °F - 34.9 °F 59% 30.22 in 10.0 mi WNW 8.1 mph - N/A   Clear
11:55 AM 49.8 °F - 36.3 °F 60% 30.21 in 10.0 mi NNW 5.8 mph - N/A   Clear
12:15 PM 51.3 °F - 36.5 °F 57% 30.21 in 10.0 mi WSW 5.8 mph - N/A   Clear
12:35 PM 51.4 °F - 35.6 °F 55% 30.20 in 10.0 mi NW 5.8 mph - N/A   Clear
12:55 PM 53.2 °F - 35.2 °F 51% 30.19 in 10.0 mi West 8.1 mph - N/A   Clear
1:15 PM 54.0 °F - 37.0 °F 53% 30.19 in 10.0 mi West 8.1 mph - N/A   Clear
1:35 PM 54.1 °F - 36.3 °F 51% 30.19 in 10.0 mi West 10.4 mph 16.1 mph N/A   Clear
1:55 PM 55.2 °F - 35.4 °F 47% 30.19 in 10.0 mi NW 8.1 mph - N/A   Clear
2:15 PM 54.5 °F - 36.7 °F 51% 30.18 in 10.0 mi WNW 8.1 mph - N/A   Clear
2:35 PM 54.9 °F - 34.2 °F 46% 30.18 in 10.0 mi WNW 9.2 mph - N/A   Clear
2:55 PM 54.1 °F - 34.7 °F 48% 30.18 in 10.0 mi WNW 6.9 mph - N/A   Clear
3:15 PM 54.0 °F - 35.6 °F 50% 30.18 in 10.0 mi West 9.2 mph - N/A   Clear
3:35 PM 54.7 °F - 34.9 °F 47% 30.19 in 10.0 mi West 11.5 mph - N/A   Scattered Clouds
3:55 PM 54.7 °F - 35.2 °F 48% 30.18 in 10.0 mi WNW 9.2 mph - N/A   Scattered Clouds
4:15 PM 53.4 °F - 35.1 °F 50% 30.18 in 10.0 mi West 9.2 mph - N/A   Mostly Cloudy
4:35 PM 52.7 °F - 35.4 °F 52% 30.17 in 10.0 mi West 9.2 mph - N/A   Overcast
4:55 PM 52.0 °F - 35.4 °F 53% 30.17 in 10.0 mi WNW 8.1 mph - N/A   Overcast
5:15 PM 51.8 °F - 36.1 °F 55% 30.18 in 10.0 mi WNW 6.9 mph - N/A   Overcast
5:35 PM 51.6 °F - 36.5 °F 56% 30.18 in 10.0 mi West 8.1 mph - N/A   Overcast
5:55 PM 50.9 °F - 37.6 °F 60% 30.18 in 10.0 mi West 5.8 mph - N/A   Overcast
6:15 PM 50.4 °F - 38.3 °F 63% 30.18 in 10.0 mi WNW 6.9 mph - N/A   Overcast
6:35 PM 50.0 °F - 37.4 °F 62% 30.19 in 10.0 mi West 8.1 mph - N/A   Overcast
6:55 PM 49.5 °F - 37.6 °F 64% 30.19 in 10.0 mi West 5.8 mph - N/A   Overcast
7:15 PM 49.3 °F - 37.8 °F 65% 30.20 in 10.0 mi West 5.8 mph - N/A   Overcast
7:35 PM 48.7 °F - 38.5 °F 68% 30.19 in 10.0 mi West 4.6 mph - N/A   Overcast
7:55 PM 48.4 °F - 38.7 °F 69% 30.19 in 10.0 mi West 3.5 mph - N/A   Mostly Cloudy
8:15 PM 48.0 °F - 39.2 °F 72% 30.19 in 10.0 mi WNW 3.5 mph - N/A   Mostly Cloudy
8:35 PM 47.7 °F - 38.7 °F 71% 30.20 in 10.0 mi West 5.8 mph - N/A   Scattered Clouds
8:55 PM 47.5 °F - 37.6 °F 69% 30.20 in 10.0 mi WNW 5.8 mph - N/A   Clear
9:15 PM 47.3 °F - 37.4 °F 68% 30.21 in 10.0 mi WNW 5.8 mph - N/A   Scattered Clouds
9:35 PM 47.3 °F - 36.9 °F 67% 30.21 in 10.0 mi WNW 6.9 mph - N/A   Scattered Clouds
9:55 PM 46.9 °F - 36.7 °F 68% 30.22 in 10.0 mi WNW 5.8 mph - N/A   Mostly Cloudy
10:15 PM 46.6 °F - 36.5 °F 68% 30.23 in 10.0 mi WNW 6.9 mph - N/A   Mostly Cloudy
10:35 PM 45.9 °F 42.3 °F 36.7 °F 70% 30.22 in 10.0 mi WNW 6.9 mph - N/A   Mostly Cloudy
10:55 PM 45.7 °F 43.4 °F 36.7 °F 71% 30.22 in 10.0 mi WNW 4.6 mph - N/A   Overcast
11:15 PM 45.5 °F 41.8 °F 37.0 °F 72% 30.21 in 10.0 mi WNW 6.9 mph - N/A   Overcast
11:55 PM 45.1 °F 41.4 °F 37.4 °F 74% 30.20 in 10.0 mi WNW 6.9 mph - N/A   Overcast